sensor_id;sensor_type;location;lat;lon;timestamp;P1;durP1;ratioP1;P2;durP2;ratioP2
36137;SDS011;22194;50.046;21.954;2022-11-14T00:01:22;64.40;;;34.80;;
36137;SDS011;22194;50.046;21.954;2022-11-14T00:03:50;63.80;;;33.00;;
36137;SDS011;22194;50.046;21.954;2022-11-14T00:06:18;55.90;;;31.00;;
36137;SDS011;22194;50.046;21.954;2022-11-14T00:08:48;56.50;;;31.80;;
36137;SDS011;22194;50.046;21.954;2022-11-14T00:11:16;57.70;;;32.20;;
36137;SDS011;22194;50.046;21.954;2022-11-14T00:13:44;59.20;;;31.80;;
36137;SDS011;22194;50.046;21.954;2022-11-14T00:16:16;62.60;;;33.40;;
36137;SDS011;22194;50.046;21.954;2022-11-14T00:18:44;61.70;;;32.50;;
36137;SDS011;22194;50.046;21.954;2022-11-14T00:21:11;56.00;;;31.50;;
36137;SDS011;22194;50.046;21.954;2022-11-14T00:23:39;57.50;;;30.70;;
36137;SDS011;22194;50.046;21.954;2022-11-14T00:26:07;56.80;;;30.40;;
36137;SDS011;22194;50.046;21.954;2022-11-14T00:28:38;55.90;;;28.40;;
36137;SDS011;22194;50.046;21.954;2022-11-14T00:31:07;53.60;;;29.70;;
36137;SDS011;22194;50.046;21.954;2022-11-14T00:33:39;62.20;;;31.90;;
36137;SDS011;22194;50.046;21.954;2022-11-14T00:36:07;53.60;;;29.20;;
36137;SDS011;22194;50.046;21.954;2022-11-14T00:38:38;59.10;;;30.40;;
36137;SDS011;22194;50.046;21.954;2022-11-14T00:41:10;55.90;;;28.30;;
36137;SDS011;22194;50.046;21.954;2022-11-14T00:43:37;53.90;;;29.40;;
36137;SDS011;22194;50.046;21.954;2022-11-14T00:46:09;54.60;;;28.90;;
36137;SDS011;22194;50.046;21.954;2022-11-14T00:48:37;58.20;;;28.90;;
36137;SDS011;22194;50.046;21.954;2022-11-14T00:51:05;54.10;;;28.20;;
36137;SDS011;22194;50.046;21.954;2022-11-14T00:53:33;53.90;;;29.30;;
36137;SDS011;22194;50.046;21.954;2022-11-14T00:56:05;53.10;;;28.30;;
36137;SDS011;22194;50.046;21.954;2022-11-14T00:58:36;53.30;;;28.70;;
36137;SDS011;22194;50.046;21.954;2022-11-14T01:01:03;53.20;;;28.30;;
36137;SDS011;22194;50.046;21.954;2022-11-14T01:03:35;51.60;;;28.50;;
36137;SDS011;22194;50.046;21.954;2022-11-14T01:06:04;54.20;;;27.20;;
36137;SDS011;22194;50.046;21.954;2022-11-14T01:08:37;48.00;;;27.40;;
36137;SDS011;22194;50.046;21.954;2022-11-14T01:11:09;54.70;;;27.40;;
36137;SDS011;22194;50.046;21.954;2022-11-14T01:13:44;48.60;;;25.80;;
36137;SDS011;22194;50.046;21.954;2022-11-14T01:16:15;50.90;;;28.30;;
36137;SDS011;22194;50.046;21.954;2022-11-14T01:18:46;50.10;;;26.70;;
36137;SDS011;22194;50.046;21.954;2022-11-14T01:21:17;55.10;;;28.10;;
36137;SDS011;22194;50.046;21.954;2022-11-14T01:23:45;54.50;;;27.80;;
36137;SDS011;22194;50.046;21.954;2022-11-14T01:26:13;53.70;;;28.00;;
36137;SDS011;22194;50.046;21.954;2022-11-14T01:28:45;49.90;;;27.50;;
36137;SDS011;22194;50.046;21.954;2022-11-14T01:31:14;50.80;;;28.70;;
36137;SDS011;22194;50.046;21.954;2022-11-14T01:33:47;50.40;;;26.30;;
36137;SDS011;22194;50.046;21.954;2022-11-14T01:36:20;48.10;;;24.10;;
36137;SDS011;22194;50.046;21.954;2022-11-14T01:38:52;50.70;;;26.50;;
36137;SDS011;22194;50.046;21.954;2022-11-14T01:41:23;49.50;;;25.80;;
36137;SDS011;22194;50.046;21.954;2022-11-14T01:43:55;46.50;;;25.70;;
36137;SDS011;22194;50.046;21.954;2022-11-14T01:46:24;46.00;;;25.00;;
36137;SDS011;22194;50.046;21.954;2022-11-14T01:49:18;46.80;;;24.40;;
36137;SDS011;22194;50.046;21.954;2022-11-14T01:51:50;47.20;;;25.10;;
36137;SDS011;22194;50.046;21.954;2022-11-14T01:54:36;43.80;;;23.40;;
36137;SDS011;22194;50.046;21.954;2022-11-14T01:57:11;43.60;;;22.30;;
36137;SDS011;22194;50.046;21.954;2022-11-14T01:59:51;40.70;;;21.90;;
36137;SDS011;22194;50.046;21.954;2022-11-14T02:02:26;45.10;;;23.80;;
36137;SDS011;22194;50.046;21.954;2022-11-14T02:04:56;43.70;;;22.40;;
36137;SDS011;22194;50.046;21.954;2022-11-14T02:07:39;38.80;;;20.70;;
36137;SDS011;22194;50.046;21.954;2022-11-14T02:10:14;38.70;;;20.30;;
36137;SDS011;22194;50.046;21.954;2022-11-14T02:12:47;39.70;;;20.90;;
36137;SDS011;22194;50.046;21.954;2022-11-14T02:15:19;34.80;;;18.10;;
36137;SDS011;22194;50.046;21.954;2022-11-14T02:17:52;36.90;;;18.60;;
36137;SDS011;22194;50.046;21.954;2022-11-14T02:20:27;34.80;;;18.10;;
36137;SDS011;22194;50.046;21.954;2022-11-14T02:23:01;31.10;;;16.10;;
36137;SDS011;22194;50.046;21.954;2022-11-14T02:25:29;31.20;;;16.60;;
36137;SDS011;22194;50.046;21.954;2022-11-14T02:27:56;32.30;;;16.60;;
36137;SDS011;22194;50.046;21.954;2022-11-14T02:30:29;31.40;;;15.80;;
36137;SDS011;22194;50.046;21.954;2022-11-14T02:33:00;27.50;;;13.10;;
36137;SDS011;22194;50.046;21.954;2022-11-14T02:35:46;28.60;;;14.00;;
36137;SDS011;22194;50.046;21.954;2022-11-14T02:38:18;27.40;;;14.20;;
36137;SDS011;22194;50.046;21.954;2022-11-14T02:40:45;28.40;;;13.70;;
36137;SDS011;22194;50.046;21.954;2022-11-14T02:43:13;27.40;;;13.90;;
36137;SDS011;22194;50.046;21.954;2022-11-14T02:45:41;26.80;;;13.50;;
36137;SDS011;22194;50.046;21.954;2022-11-14T02:48:09;27.70;;;13.70;;
36137;SDS011;22194;50.046;21.954;2022-11-14T02:50:37;26.60;;;13.30;;
36137;SDS011;22194;50.046;21.954;2022-11-14T02:53:08;23.70;;;12.00;;
36137;SDS011;22194;50.046;21.954;2022-11-14T02:55:36;27.40;;;13.70;;
36137;SDS011;22194;50.046;21.954;2022-11-14T02:58:03;26.20;;;12.50;;
36137;SDS011;22194;50.046;21.954;2022-11-14T03:00:31;26.50;;;12.80;;
36137;SDS011;22194;50.046;21.954;2022-11-14T03:03:13;25.40;;;12.80;;
36137;SDS011;22194;50.046;21.954;2022-11-14T03:05:41;27.50;;;14.00;;
36137;SDS011;22194;50.046;21.954;2022-11-14T03:08:09;26.40;;;13.10;;
36137;SDS011;22194;50.046;21.954;2022-11-14T03:10:37;27.10;;;13.40;;
36137;SDS011;22194;50.046;21.954;2022-11-14T03:13:04;25.50;;;13.10;;
36137;SDS011;22194;50.046;21.954;2022-11-14T03:15:35;25.00;;;12.50;;
36137;SDS011;22194;50.046;21.954;2022-11-14T03:18:06;24.70;;;12.40;;
36137;SDS011;22194;50.046;21.954;2022-11-14T03:20:34;25.30;;;12.40;;
36137;SDS011;22194;50.046;21.954;2022-11-14T03:23:02;24.40;;;12.90;;
36137;SDS011;22194;50.046;21.954;2022-11-14T03:25:34;25.20;;;11.90;;
36137;SDS011;22194;50.046;21.954;2022-11-14T03:28:01;25.00;;;12.30;;
36137;SDS011;22194;50.046;21.954;2022-11-14T03:30:29;25.20;;;12.30;;
36137;SDS011;22194;50.046;21.954;2022-11-14T03:33:01;22.50;;;11.60;;
36137;SDS011;22194;50.046;21.954;2022-11-14T03:35:29;24.30;;;11.90;;
36137;SDS011;22194;50.046;21.954;2022-11-14T03:37:56;23.00;;;11.20;;
36137;SDS011;22194;50.046;21.954;2022-11-14T03:40:24;24.40;;;12.00;;
36137;SDS011;22194;50.046;21.954;2022-11-14T03:42:52;23.30;;;11.50;;
36137;SDS011;22194;50.046;21.954;2022-11-14T03:45:20;22.90;;;10.70;;
36137;SDS011;22194;50.046;21.954;2022-11-14T03:47:48;24.10;;;11.70;;
36137;SDS011;22194;50.046;21.954;2022-11-14T03:50:16;24.20;;;11.80;;
36137;SDS011;22194;50.046;21.954;2022-11-14T03:52:44;23.00;;;11.00;;
36137;SDS011;22194;50.046;21.954;2022-11-14T03:55:18;24.70;;;11.70;;
36137;SDS011;22194;50.046;21.954;2022-11-14T03:57:48;25.50;;;12.50;;
36137;SDS011;22194;50.046;21.954;2022-11-14T04:00:16;24.00;;;12.00;;
36137;SDS011;22194;50.046;21.954;2022-11-14T04:02:48;25.00;;;11.10;;
36137;SDS011;22194;50.046;21.954;2022-11-14T04:05:15;22.10;;;10.70;;
36137;SDS011;22194;50.046;21.954;2022-11-14T04:07:43;24.90;;;11.40;;
36137;SDS011;22194;50.046;21.954;2022-11-14T04:10:11;25.40;;;12.30;;
36137;SDS011;22194;50.046;21.954;2022-11-14T04:12:39;22.80;;;11.20;;
36137;SDS011;22194;50.046;21.954;2022-11-14T04:15:06;25.70;;;11.40;;
36137;SDS011;22194;50.046;21.954;2022-11-14T04:17:34;24.00;;;11.20;;
36137;SDS011;22194;50.046;21.954;2022-11-14T04:20:11;22.70;;;10.60;;
36137;SDS011;22194;50.046;21.954;2022-11-14T04:22:41;24.00;;;11.60;;
36137;SDS011;22194;50.046;21.954;2022-11-14T04:25:12;22.90;;;12.00;;
36137;SDS011;22194;50.046;21.954;2022-11-14T04:27:40;24.90;;;11.40;;
36137;SDS011;22194;50.046;21.954;2022-11-14T04:30:11;22.70;;;11.90;;
36137;SDS011;22194;50.046;21.954;2022-11-14T04:32:39;24.30;;;11.20;;
36137;SDS011;22194;50.046;21.954;2022-11-14T04:35:07;25.90;;;12.20;;
36137;SDS011;22194;50.046;21.954;2022-11-14T04:37:35;23.10;;;11.50;;
36137;SDS011;22194;50.046;21.954;2022-11-14T04:40:09;28.30;;;12.80;;
36137;SDS011;22194;50.046;21.954;2022-11-14T04:42:37;21.90;;;10.90;;
36137;SDS011;22194;50.046;21.954;2022-11-14T04:45:08;23.20;;;11.10;;
36137;SDS011;22194;50.046;21.954;2022-11-14T04:47:36;25.90;;;12.50;;
36137;SDS011;22194;50.046;21.954;2022-11-14T04:50:05;22.70;;;11.00;;
36137;SDS011;22194;50.046;21.954;2022-11-14T04:52:36;23.90;;;11.10;;
36137;SDS011;22194;50.046;21.954;2022-11-14T04:55:07;25.10;;;11.70;;
36137;SDS011;22194;50.046;21.954;2022-11-14T04:57:37;27.10;;;12.10;;
36137;SDS011;22194;50.046;21.954;2022-11-14T05:00:05;24.30;;;12.20;;
36137;SDS011;22194;50.046;21.954;2022-11-14T05:02:34;24.30;;;11.60;;
36137;SDS011;22194;50.046;21.954;2022-11-14T05:05:02;24.00;;;11.40;;
36137;SDS011;22194;50.046;21.954;2022-11-14T05:07:30;26.70;;;12.10;;
36137;SDS011;22194;50.046;21.954;2022-11-14T05:09:58;25.90;;;11.70;;
36137;SDS011;22194;50.046;21.954;2022-11-14T05:12:26;24.40;;;11.70;;
36137;SDS011;22194;50.046;21.954;2022-11-14T05:14:54;24.50;;;11.30;;
36137;SDS011;22194;50.046;21.954;2022-11-14T05:17:22;23.60;;;11.70;;
36137;SDS011;22194;50.046;21.954;2022-11-14T05:19:49;24.70;;;12.20;;
36137;SDS011;22194;50.046;21.954;2022-11-14T05:22:17;26.60;;;12.30;;
36137;SDS011;22194;50.046;21.954;2022-11-14T05:24:47;25.60;;;13.60;;
36137;SDS011;22194;50.046;21.954;2022-11-14T05:27:16;24.70;;;12.50;;
36137;SDS011;22194;50.046;21.954;2022-11-14T05:29:44;26.00;;;13.40;;
36137;SDS011;22194;50.046;21.954;2022-11-14T05:32:11;27.30;;;14.30;;
36137;SDS011;22194;50.046;21.954;2022-11-14T05:34:42;27.20;;;14.00;;
36137;SDS011;22194;50.046;21.954;2022-11-14T05:37:12;25.50;;;13.00;;
36137;SDS011;22194;50.046;21.954;2022-11-14T05:39:40;24.70;;;12.70;;
36137;SDS011;22194;50.046;21.954;2022-11-14T05:42:08;28.00;;;13.80;;
36137;SDS011;22194;50.046;21.954;2022-11-14T05:44:36;25.00;;;13.30;;
36137;SDS011;22194;50.046;21.954;2022-11-14T05:47:04;26.40;;;13.40;;
36137;SDS011;22194;50.046;21.954;2022-11-14T05:49:31;28.50;;;14.00;;
36137;SDS011;22194;50.046;21.954;2022-11-14T05:51:59;26.80;;;13.90;;
36137;SDS011;22194;50.046;21.954;2022-11-14T05:54:27;25.20;;;12.90;;
36137;SDS011;22194;50.046;21.954;2022-11-14T05:56:55;27.30;;;14.60;;
36137;SDS011;22194;50.046;21.954;2022-11-14T05:59:23;32.00;;;18.00;;
36137;SDS011;22194;50.046;21.954;2022-11-14T06:01:50;28.10;;;15.10;;
36137;SDS011;22194;50.046;21.954;2022-11-14T06:04:22;30.10;;;15.60;;
36137;SDS011;22194;50.046;21.954;2022-11-14T06:06:53;24.20;;;13.20;;
36137;SDS011;22194;50.046;21.954;2022-11-14T06:09:25;23.20;;;12.30;;
36137;SDS011;22194;50.046;21.954;2022-11-14T06:11:53;24.30;;;11.70;;
36137;SDS011;22194;50.046;21.954;2022-11-14T06:14:20;25.90;;;13.00;;
36137;SDS011;22194;50.046;21.954;2022-11-14T06:16:48;25.70;;;14.80;;
36137;SDS011;22194;50.046;21.954;2022-11-14T06:19:18;24.20;;;12.70;;
36137;SDS011;22194;50.046;21.954;2022-11-14T06:21:48;25.40;;;13.00;;
36137;SDS011;22194;50.046;21.954;2022-11-14T06:24:16;25.90;;;12.80;;
36137;SDS011;22194;50.046;21.954;2022-11-14T06:26:44;24.10;;;13.80;;
36137;SDS011;22194;50.046;21.954;2022-11-14T06:29:14;25.90;;;14.00;;
36137;SDS011;22194;50.046;21.954;2022-11-14T06:31:42;26.40;;;14.70;;
36137;SDS011;22194;50.046;21.954;2022-11-14T06:34:10;27.00;;;15.20;;
36137;SDS011;22194;50.046;21.954;2022-11-14T06:36:42;28.80;;;15.70;;
36137;SDS011;22194;50.046;21.954;2022-11-14T06:39:09;28.50;;;14.70;;
36137;SDS011;22194;50.046;21.954;2022-11-14T06:41:37;27.30;;;15.50;;
36137;SDS011;22194;50.046;21.954;2022-11-14T06:44:06;36.90;;;18.20;;
36137;SDS011;22194;50.046;21.954;2022-11-14T06:46:38;29.10;;;14.30;;
36137;SDS011;22194;50.046;21.954;2022-11-14T06:49:05;29.20;;;16.00;;
36137;SDS011;22194;50.046;21.954;2022-11-14T06:51:33;28.60;;;14.20;;
36137;SDS011;22194;50.046;21.954;2022-11-14T06:54:01;30.60;;;14.60;;
36137;SDS011;22194;50.046;21.954;2022-11-14T06:56:29;30.20;;;14.50;;
36137;SDS011;22194;50.046;21.954;2022-11-14T06:58:57;30.20;;;15.00;;
36137;SDS011;22194;50.046;21.954;2022-11-14T07:01:27;27.20;;;14.30;;
36137;SDS011;22194;50.046;21.954;2022-11-14T07:03:55;28.40;;;14.50;;
36137;SDS011;22194;50.046;21.954;2022-11-14T07:06:29;31.00;;;15.80;;
36137;SDS011;22194;50.046;21.954;2022-11-14T07:09:00;27.30;;;14.30;;
36137;SDS011;22194;50.046;21.954;2022-11-14T07:11:28;32.30;;;15.70;;
36137;SDS011;22194;50.046;21.954;2022-11-14T07:14:01;31.90;;;17.30;;
36137;SDS011;22194;50.046;21.954;2022-11-14T07:19:03;29.30;;;16.40;;
36137;SDS011;22194;50.046;21.954;2022-11-14T07:21:37;28.40;;;15.50;;
36137;SDS011;22194;50.046;21.954;2022-11-14T07:24:07;29.00;;;15.10;;
36137;SDS011;22194;50.046;21.954;2022-11-14T07:26:35;29.10;;;15.80;;
36137;SDS011;22194;50.046;21.954;2022-11-14T07:29:03;29.70;;;15.90;;
36137;SDS011;22194;50.046;21.954;2022-11-14T07:31:31;35.60;;;18.00;;
36137;SDS011;22194;50.046;21.954;2022-11-14T07:34:02;31.30;;;16.90;;
36137;SDS011;22194;50.046;21.954;2022-11-14T07:36:30;32.60;;;17.50;;
36137;SDS011;22194;50.046;21.954;2022-11-14T07:38:58;34.10;;;19.10;;
36137;SDS011;22194;50.046;21.954;2022-11-14T07:41:26;31.70;;;17.40;;
36137;SDS011;22194;50.046;21.954;2022-11-14T07:43:53;33.50;;;17.40;;
36137;SDS011;22194;50.046;21.954;2022-11-14T07:46:21;33.50;;;17.70;;
36137;SDS011;22194;50.046;21.954;2022-11-14T07:48:49;35.00;;;20.50;;
36137;SDS011;22194;50.046;21.954;2022-11-14T07:51:18;36.50;;;19.30;;
36137;SDS011;22194;50.046;21.954;2022-11-14T07:53:50;36.50;;;19.50;;
36137;SDS011;22194;50.046;21.954;2022-11-14T07:56:22;32.80;;;19.40;;
36137;SDS011;22194;50.046;21.954;2022-11-14T07:58:54;37.40;;;20.90;;
36137;SDS011;22194;50.046;21.954;2022-11-14T08:01:22;34.90;;;19.40;;
36137;SDS011;22194;50.046;21.954;2022-11-14T08:03:50;37.30;;;20.40;;
36137;SDS011;22194;50.046;21.954;2022-11-14T08:06:22;35.70;;;19.40;;
36137;SDS011;22194;50.046;21.954;2022-11-14T08:08:49;34.40;;;19.10;;
36137;SDS011;22194;50.046;21.954;2022-11-14T08:11:17;34.90;;;19.30;;
36137;SDS011;22194;50.046;21.954;2022-11-14T08:14:08;33.50;;;19.60;;
36137;SDS011;22194;50.046;21.954;2022-11-14T08:16:36;34.90;;;17.90;;
36137;SDS011;22194;50.046;21.954;2022-11-14T08:19:03;31.50;;;18.60;;
36137;SDS011;22194;50.046;21.954;2022-11-14T08:21:31;36.00;;;19.50;;
36137;SDS011;22194;50.046;21.954;2022-11-14T08:23:59;33.60;;;17.80;;
36137;SDS011;22194;50.046;21.954;2022-11-14T08:26:27;32.10;;;17.20;;
36137;SDS011;22194;50.046;21.954;2022-11-14T08:29:02;31.80;;;17.50;;
36137;SDS011;22194;50.046;21.954;2022-11-14T08:31:33;33.20;;;19.70;;
36137;SDS011;22194;50.046;21.954;2022-11-14T08:34:04;36.40;;;20.80;;
36137;SDS011;22194;50.046;21.954;2022-11-14T08:36:32;38.90;;;21.40;;
36137;SDS011;22194;50.046;21.954;2022-11-14T08:39:02;33.60;;;18.70;;
36137;SDS011;22194;50.046;21.954;2022-11-14T08:41:30;33.90;;;17.50;;
36137;SDS011;22194;50.046;21.954;2022-11-14T08:43:58;31.50;;;15.70;;
36137;SDS011;22194;50.046;21.954;2022-11-14T08:46:25;30.30;;;16.90;;
36137;SDS011;22194;50.046;21.954;2022-11-14T08:48:53;30.70;;;16.40;;
36137;SDS011;22194;50.046;21.954;2022-11-14T08:51:25;29.70;;;15.30;;
36137;SDS011;22194;50.046;21.954;2022-11-14T08:53:53;29.90;;;14.80;;
36137;SDS011;22194;50.046;21.954;2022-11-14T08:56:21;30.20;;;15.20;;
36137;SDS011;22194;50.046;21.954;2022-11-14T08:58:52;30.10;;;15.60;;
36137;SDS011;22194;50.046;21.954;2022-11-14T09:01:20;28.40;;;15.60;;
36137;SDS011;22194;50.046;21.954;2022-11-14T09:03:48;30.70;;;16.20;;
36137;SDS011;22194;50.046;21.954;2022-11-14T09:06:28;28.40;;;14.80;;
36137;SDS011;22194;50.046;21.954;2022-11-14T09:08:56;31.50;;;15.60;;
36137;SDS011;22194;50.046;21.954;2022-11-14T09:11:28;30.00;;;16.20;;
36137;SDS011;22194;50.046;21.954;2022-11-14T09:13:55;30.20;;;16.30;;
36137;SDS011;22194;50.046;21.954;2022-11-14T09:16:23;33.50;;;17.10;;
36137;SDS011;22194;50.046;21.954;2022-11-14T09:18:51;31.50;;;16.20;;
36137;SDS011;22194;50.046;21.954;2022-11-14T09:21:18;31.00;;;16.00;;
36137;SDS011;22194;50.046;21.954;2022-11-14T09:23:50;29.80;;;15.50;;
36137;SDS011;22194;50.046;21.954;2022-11-14T09:26:31;28.90;;;16.40;;
36137;SDS011;22194;50.046;21.954;2022-11-14T09:29:02;28.20;;;15.00;;
36137;SDS011;22194;50.046;21.954;2022-11-14T09:34:04;29.20;;;15.70;;
36137;SDS011;22194;50.046;21.954;2022-11-14T09:36:35;30.40;;;15.30;;
36137;SDS011;22194;50.046;21.954;2022-11-14T09:39:06;32.10;;;15.00;;
36137;SDS011;22194;50.046;21.954;2022-11-14T09:47:36;35.80;;;16.60;;
36137;SDS011;22194;50.046;21.954;2022-11-14T09:50:15;30.10;;;15.60;;
36137;SDS011;22194;50.046;21.954;2022-11-14T09:52:55;28.60;;;14.40;;
36137;SDS011;22194;50.046;21.954;2022-11-14T09:55:37;28.80;;;14.60;;
36137;SDS011;22194;50.046;21.954;2022-11-14T09:58:07;27.40;;;14.20;;
36137;SDS011;22194;50.046;21.954;2022-11-14T10:01:00;29.00;;;14.90;;
36137;SDS011;22194;50.046;21.954;2022-11-14T10:03:46;31.60;;;15.10;;
36137;SDS011;22194;50.046;21.954;2022-11-14T10:06:39;30.30;;;15.70;;
36137;SDS011;22194;50.046;21.954;2022-11-14T10:12:30;31.50;;;15.60;;
36137;SDS011;22194;50.046;21.954;2022-11-14T10:20:54;28.30;;;16.00;;
36137;SDS011;22194;50.046;21.954;2022-11-14T10:23:46;26.90;;;14.60;;
36137;SDS011;22194;50.046;21.954;2022-11-14T10:26:49;28.40;;;14.60;;
36137;SDS011;22194;50.046;21.954;2022-11-14T10:35:14;30.20;;;15.50;;
36137;SDS011;22194;50.046;21.954;2022-11-14T10:37:52;29.20;;;14.60;;
36137;SDS011;22194;50.046;21.954;2022-11-14T10:40:54;28.10;;;15.40;;
36137;SDS011;22194;50.046;21.954;2022-11-14T10:43:47;27.90;;;15.10;;
36137;SDS011;22194;50.046;21.954;2022-11-14T10:46:40;28.50;;;14.40;;
36137;SDS011;22194;50.046;21.954;2022-11-14T10:51:50;26.30;;;14.10;;
36137;SDS011;22194;50.046;21.954;2022-11-14T10:54:43;31.10;;;16.10;;
36137;SDS011;22194;50.046;21.954;2022-11-14T10:57:19;27.40;;;14.80;;
36137;SDS011;22194;50.046;21.954;2022-11-14T10:59:50;32.80;;;15.90;;
36137;SDS011;22194;50.046;21.954;2022-11-14T11:02:23;26.50;;;14.40;;
36137;SDS011;22194;50.046;21.954;2022-11-14T11:04:51;28.20;;;15.60;;
36137;SDS011;22194;50.046;21.954;2022-11-14T11:07:20;28.20;;;15.30;;
36137;SDS011;22194;50.046;21.954;2022-11-14T11:10:19;28.50;;;15.90;;
36137;SDS011;22194;50.046;21.954;2022-11-14T11:13:09;31.90;;;16.10;;
36137;SDS011;22194;50.046;21.954;2022-11-14T11:16:00;30.00;;;17.60;;
36137;SDS011;22194;50.046;21.954;2022-11-14T11:18:33;28.80;;;15.20;;
36137;SDS011;22194;50.046;21.954;2022-11-14T11:21:09;28.40;;;14.70;;
36137;SDS011;22194;50.046;21.954;2022-11-14T11:23:52;28.70;;;14.20;;
36137;SDS011;22194;50.046;21.954;2022-11-14T11:26:25;31.70;;;14.50;;
36137;SDS011;22194;50.046;21.954;2022-11-14T11:31:51;27.60;;;14.10;;
36137;SDS011;22194;50.046;21.954;2022-11-14T11:34:29;28.10;;;14.20;;
36137;SDS011;22194;50.046;21.954;2022-11-14T11:37:04;29.70;;;14.90;;
36137;SDS011;22194;50.046;21.954;2022-11-14T11:40:00;26.50;;;13.80;;
36137;SDS011;22194;50.046;21.954;2022-11-14T11:45:50;25.90;;;13.50;;
36137;SDS011;22194;50.046;21.954;2022-11-14T11:48:26;27.60;;;14.10;;
36137;SDS011;22194;50.046;21.954;2022-11-14T11:51:04;26.40;;;14.10;;
36137;SDS011;22194;50.046;21.954;2022-11-14T11:53:46;28.30;;;14.40;;
36137;SDS011;22194;50.046;21.954;2022-11-14T11:56:34;24.90;;;13.50;;
36137;SDS011;22194;50.046;21.954;2022-11-14T12:04:51;25.40;;;12.80;;
36137;SDS011;22194;50.046;21.954;2022-11-14T12:07:33;29.50;;;15.00;;
36137;SDS011;22194;50.046;21.954;2022-11-14T12:10:22;26.40;;;13.90;;
36137;SDS011;22194;50.046;21.954;2022-11-14T12:29:48;31.80;;;15.80;;
36137;SDS011;22194;50.046;21.954;2022-11-14T12:32:44;31.80;;;16.90;;
36137;SDS011;22194;50.046;21.954;2022-11-14T12:35:32;31.60;;;17.60;;
36137;SDS011;22194;50.046;21.954;2022-11-14T12:38:04;32.70;;;17.30;;
36137;SDS011;22194;50.046;21.954;2022-11-14T12:40:48;31.70;;;17.00;;
36137;SDS011;22194;50.046;21.954;2022-11-14T12:46:13;29.50;;;16.10;;
36137;SDS011;22194;50.046;21.954;2022-11-14T12:48:44;31.70;;;17.00;;
36137;SDS011;22194;50.046;21.954;2022-11-14T12:53:56;27.40;;;14.80;;
36137;SDS011;22194;50.046;21.954;2022-11-14T12:59:11;29.60;;;15.20;;
36137;SDS011;22194;50.046;21.954;2022-11-14T13:04:27;30.10;;;15.90;;
36137;SDS011;22194;50.046;21.954;2022-11-14T13:07:32;28.10;;;15.20;;
36137;SDS011;22194;50.046;21.954;2022-11-14T13:10:27;28.10;;;15.00;;
36137;SDS011;22194;50.046;21.954;2022-11-14T13:13:09;33.00;;;16.00;;
36137;SDS011;22194;50.046;21.954;2022-11-14T13:16:05;27.80;;;15.50;;
36137;SDS011;22194;50.046;21.954;2022-11-14T13:27:30;31.20;;;17.10;;
36137;SDS011;22194;50.046;21.954;2022-11-14T13:33:38;31.40;;;16.50;;
36137;SDS011;22194;50.046;21.954;2022-11-14T13:36:14;32.30;;;17.50;;
36137;SDS011;22194;50.046;21.954;2022-11-14T13:39:04;30.50;;;16.70;;
36137;SDS011;22194;50.046;21.954;2022-11-14T13:50:16;33.60;;;18.30;;
36137;SDS011;22194;50.046;21.954;2022-11-14T13:52:59;35.90;;;18.00;;
36137;SDS011;22194;50.046;21.954;2022-11-14T13:55:47;34.60;;;19.00;;
36137;SDS011;22194;50.046;21.954;2022-11-14T14:01:47;35.90;;;19.80;;
36137;SDS011;22194;50.046;21.954;2022-11-14T14:04:52;34.40;;;19.00;;
36137;SDS011;22194;50.046;21.954;2022-11-14T14:13:29;34.60;;;19.30;;
36137;SDS011;22194;50.046;21.954;2022-11-14T14:16:33;33.30;;;18.90;;
36137;SDS011;22194;50.046;21.954;2022-11-14T14:19:10;34.20;;;18.40;;
36137;SDS011;22194;50.046;21.954;2022-11-14T14:21:54;35.40;;;18.80;;
36137;SDS011;22194;50.046;21.954;2022-11-14T14:27:25;36.00;;;19.70;;
36137;SDS011;22194;50.046;21.954;2022-11-14T14:30:16;32.50;;;19.10;;
36137;SDS011;22194;50.046;21.954;2022-11-14T14:33:03;37.50;;;19.50;;
36137;SDS011;22194;50.046;21.954;2022-11-14T14:35:47;35.30;;;18.50;;
36137;SDS011;22194;50.046;21.954;2022-11-14T14:38:24;37.00;;;20.30;;
36137;SDS011;22194;50.046;21.954;2022-11-14T14:40:57;33.20;;;18.10;;
36137;SDS011;22194;50.046;21.954;2022-11-14T14:43:32;32.90;;;17.40;;
36137;SDS011;22194;50.046;21.954;2022-11-14T14:46:04;34.00;;;18.10;;
36137;SDS011;22194;50.046;21.954;2022-11-14T14:48:32;33.40;;;18.50;;
36137;SDS011;22194;50.046;21.954;2022-11-14T14:51:12;32.70;;;17.90;;
36137;SDS011;22194;50.046;21.954;2022-11-14T14:53:48;35.60;;;20.00;;
36137;SDS011;22194;50.046;21.954;2022-11-14T14:56:20;33.60;;;18.70;;
36137;SDS011;22194;50.046;21.954;2022-11-14T14:58:53;32.90;;;18.70;;
36137;SDS011;22194;50.046;21.954;2022-11-14T15:01:30;34.60;;;18.20;;
36137;SDS011;22194;50.046;21.954;2022-11-14T15:04:05;33.80;;;18.60;;
36137;SDS011;22194;50.046;21.954;2022-11-14T15:06:37;35.00;;;17.90;;
36137;SDS011;22194;50.046;21.954;2022-11-14T15:09:19;33.60;;;18.00;;
36137;SDS011;22194;50.046;21.954;2022-11-14T15:11:50;31.60;;;17.40;;
36137;SDS011;22194;50.046;21.954;2022-11-14T15:14:26;31.60;;;18.70;;
36137;SDS011;22194;50.046;21.954;2022-11-14T15:17:00;30.80;;;18.00;;
36137;SDS011;22194;50.046;21.954;2022-11-14T15:19:43;32.70;;;18.50;;
36137;SDS011;22194;50.046;21.954;2022-11-14T15:24:42;31.00;;;17.90;;
36137;SDS011;22194;50.046;21.954;2022-11-14T15:27:18;29.70;;;16.70;;
36137;SDS011;22194;50.046;21.954;2022-11-14T15:29:51;29.60;;;16.30;;
36137;SDS011;22194;50.046;21.954;2022-11-14T15:32:31;32.00;;;17.40;;
36137;SDS011;22194;50.046;21.954;2022-11-14T15:35:08;29.30;;;16.40;;
36137;SDS011;22194;50.046;21.954;2022-11-14T15:41:17;30.80;;;17.40;;
36137;SDS011;22194;50.046;21.954;2022-11-14T15:43:51;30.30;;;16.90;;
36137;SDS011;22194;50.046;21.954;2022-11-14T15:46:37;29.50;;;16.80;;
36137;SDS011;22194;50.046;21.954;2022-11-14T15:49:09;31.90;;;16.60;;
36137;SDS011;22194;50.046;21.954;2022-11-14T15:51:47;31.30;;;16.70;;
36137;SDS011;22194;50.046;21.954;2022-11-14T15:54:24;40.00;;;18.60;;
36137;SDS011;22194;50.046;21.954;2022-11-14T15:57:00;32.60;;;18.70;;
36137;SDS011;22194;50.046;21.954;2022-11-14T15:59:38;32.10;;;18.10;;
36137;SDS011;22194;50.046;21.954;2022-11-14T16:02:14;32.60;;;18.70;;
36137;SDS011;22194;50.046;21.954;2022-11-14T16:04:46;36.60;;;17.90;;
36137;SDS011;22194;50.046;21.954;2022-11-14T16:07:19;31.80;;;17.20;;
36137;SDS011;22194;50.046;21.954;2022-11-14T16:09:52;33.30;;;18.90;;
36137;SDS011;22194;50.046;21.954;2022-11-14T16:12:21;34.70;;;19.30;;
36137;SDS011;22194;50.046;21.954;2022-11-14T16:14:49;33.70;;;17.70;;
36137;SDS011;22194;50.046;21.954;2022-11-14T16:17:17;31.10;;;17.60;;
36137;SDS011;22194;50.046;21.954;2022-11-14T16:19:45;33.00;;;17.90;;
36137;SDS011;22194;50.046;21.954;2022-11-14T16:22:17;33.60;;;19.10;;
36137;SDS011;22194;50.046;21.954;2022-11-14T16:24:44;34.70;;;19.60;;
36137;SDS011;22194;50.046;21.954;2022-11-14T16:27:12;35.00;;;19.60;;
36137;SDS011;22194;50.046;21.954;2022-11-14T16:29:44;37.10;;;20.20;;